createdAt,value
2022-08-05T00:01:36.522Z,17.42
2022-08-05T00:04:18.164Z,17.39
2022-08-05T00:06:46.944Z,17.34
2022-08-05T00:09:15.830Z,17.31
2022-08-05T00:11:55.711Z,17.26
2022-08-05T00:14:27.467Z,17.23
2022-08-05T00:16:57.600Z,17.17
2022-08-05T00:19:33.512Z,17.10
2022-08-05T00:22:11.083Z,17.10
2022-08-05T00:24:42.172Z,17.10
2022-08-05T00:27:16.565Z,17.06
2022-08-05T00:29:45.083Z,17.06
2022-08-05T00:32:15.051Z,17.05
2022-08-05T00:35:04.095Z,16.94
2022-08-05T00:37:50.775Z,16.90
2022-08-05T00:40:27.930Z,16.87
2022-08-05T00:42:59.766Z,16.83
2022-08-05T00:45:38.325Z,16.73
2022-08-05T00:48:09.352Z,16.56
2022-08-05T00:50:38.897Z,16.69
2022-08-05T00:54:00.971Z,16.55
2022-08-05T00:55:58.510Z,16.50
2022-08-05T00:58:27.903Z,16.46
2022-08-05T01:00:56.387Z,16.43
2022-08-05T01:03:33.301Z,16.42
2022-08-05T01:06:03.962Z,16.41
2022-08-05T01:08:43.287Z,16.42
2022-08-05T01:11:22.535Z,16.39
2022-08-05T01:14:08.719Z,16.40
2022-08-05T01:16:44.514Z,16.40
2022-08-05T01:19:36.524Z,16.36
2022-08-05T01:22:28.135Z,16.41
2022-08-05T01:25:40.637Z,16.47
2022-08-05T01:28:27.173Z,16.50
2022-08-05T01:31:00.507Z,16.65
2022-08-05T01:33:36.185Z,16.66
2022-08-05T01:36:12.932Z,16.69
2022-08-05T01:38:46.731Z,16.75
2022-08-05T01:41:22.087Z,16.70
2022-08-05T01:43:52.498Z,16.77
2022-08-05T01:46:42.868Z,16.63
2022-08-05T01:49:23.949Z,16.72
2022-08-05T01:51:58.374Z,16.71
2022-08-05T01:54:31.510Z,16.69
2022-08-05T01:58:10.811Z,16.63
2022-08-05T01:59:53.791Z,16.53
2022-08-05T02:02:26.255Z,16.60
2022-08-05T02:05:03.131Z,16.69
2022-08-05T02:07:32.361Z,16.60
2022-08-05T02:10:03.487Z,16.61
2022-08-05T02:12:38.227Z,16.52
2022-08-05T02:15:12.475Z,16.61
2022-08-05T02:18:28.204Z,16.57
2022-08-05T02:20:44.200Z,16.45
2022-08-05T02:23:17.000Z,16.60
2022-08-05T02:25:49.092Z,16.55
2022-08-05T02:28:28.833Z,16.55
2022-08-05T02:31:07.497Z,16.38
2022-08-05T02:33:40.636Z,16.43
2022-08-05T02:36:13.755Z,16.35
2022-08-05T02:38:53.366Z,16.32
2022-08-05T02:41:28.801Z,16.38
2022-08-05T02:44:13.203Z,16.36
2022-08-05T02:46:58.880Z,16.41
2022-08-05T02:49:36.784Z,16.41
2022-08-05T02:52:08.979Z,16.29
2022-08-05T02:54:41.283Z,16.19
2022-08-05T02:58:10.788Z,16.08
2022-08-05T03:00:02.522Z,16.11
2022-08-05T03:02:37.421Z,16.06
2022-08-05T03:05:08.689Z,16.06
2022-08-05T03:08:00.893Z,15.98
2022-08-05T03:10:27.865Z,16.02
2022-08-05T03:15:24.463Z,15.83
2022-08-05T03:17:57.640Z,15.69
2022-08-05T03:20:26.454Z,15.85
2022-08-05T03:22:57.226Z,15.75
2022-08-05T03:25:33.666Z,15.76
2022-08-05T03:28:18.875Z,15.71
2022-08-05T03:30:49.422Z,15.72
2022-08-05T03:33:19.323Z,15.68
2022-08-05T03:35:48.248Z,15.57
2022-08-05T03:38:24.018Z,15.62
2022-08-05T03:41:08.172Z,15.55
2022-08-05T03:44:09.202Z,15.56
2022-08-05T03:46:29.816Z,15.55
2022-08-05T03:49:01.994Z,15.53
2022-08-05T03:52:38.841Z,15.50
2022-08-05T03:55:52.939Z,15.46
2022-08-05T03:57:42.323Z,15.44
2022-08-05T04:00:15.941Z,15.51
2022-08-05T04:02:57.943Z,15.48
2022-08-05T04:05:33.435Z,15.49
2022-08-05T04:08:03.637Z,15.52
2022-08-05T04:10:38.148Z,15.58
2022-08-05T04:13:08.299Z,15.52
2022-08-05T04:15:36.862Z,15.50
2022-08-05T04:18:07.280Z,15.59
2022-08-05T04:20:41.165Z,15.56
2022-08-05T04:23:12.661Z,15.55
2022-08-05T04:25:57.295Z,15.48
2022-08-05T04:28:30.804Z,15.43
2022-08-05T04:31:01.107Z,15.37
2022-08-05T04:33:54.876Z,15.38
2022-08-05T04:36:44.622Z,15.38
2022-08-05T04:39:07.798Z,15.36
2022-08-05T04:41:36.707Z,15.37
2022-08-05T04:44:08.952Z,15.29
2022-08-05T04:46:38.644Z,15.40
2022-08-05T04:49:12.151Z,15.40
2022-08-05T04:51:45.186Z,15.40
2022-08-05T04:54:14.666Z,15.40
2022-08-05T04:56:43.623Z,15.27
2022-08-05T04:59:21.854Z,15.32
2022-08-05T05:02:37.701Z,15.38
2022-08-05T05:04:50.479Z,15.38
2022-08-05T05:07:23.862Z,15.37
2022-08-05T05:09:57.562Z,15.31
2022-08-05T05:12:27.429Z,15.37
2022-08-05T05:14:55.801Z,15.42
2022-08-05T05:17:55.728Z,15.45
2022-08-05T05:20:13.746Z,15.46
2022-08-05T05:22:44.130Z,15.49
2022-08-05T05:25:16.897Z,15.51
2022-08-05T05:27:53.611Z,15.50
2022-08-05T05:30:30.841Z,15.54
2022-08-05T05:33:13.854Z,15.58
2022-08-05T05:35:47.474Z,15.62
2022-08-05T05:38:22.221Z,15.70
2022-08-05T05:40:55.053Z,15.73
2022-08-05T05:43:57.360Z,15.75
2022-08-05T05:46:17.333Z,15.77
2022-08-05T05:48:48.213Z,15.85
2022-08-05T05:51:21.855Z,15.86
2022-08-05T05:53:57.260Z,15.82
2022-08-05T05:56:33.003Z,15.93
2022-08-05T05:59:05.608Z,15.84
2022-08-05T06:01:38.010Z,15.84
2022-08-05T06:04:11.312Z,15.79
2022-08-05T06:06:41.961Z,15.83
2022-08-05T06:09:17.637Z,15.82
2022-08-05T06:12:02.006Z,15.83
2022-08-05T06:14:31.039Z,15.86
2022-08-05T06:17:01.873Z,15.93
2022-08-05T06:19:34.579Z,16.02
2022-08-05T06:22:04.553Z,16.07
2022-08-05T06:24:37.290Z,16.08
2022-08-05T06:27:05.946Z,16.09
2022-08-05T06:29:53.401Z,16.11
2022-08-05T06:32:34.139Z,16.25
2022-08-05T06:35:06.166Z,16.32
2022-08-05T06:37:57.846Z,16.41
2022-08-05T06:40:32.395Z,16.48
2022-08-05T06:43:01.010Z,16.60
2022-08-05T06:45:44.853Z,16.72
2022-08-05T06:48:50.345Z,16.81
2022-08-05T06:51:09.565Z,17.06
2022-08-05T06:53:39.113Z,17.04
2022-08-05T06:56:11.684Z,17.00
2022-08-05T06:58:54.325Z,17.14
2022-08-05T07:01:22.907Z,17.06
2022-08-05T07:03:51.168Z,17.19
2022-08-05T07:06:20.670Z,17.29
2022-08-05T07:08:51.653Z,17.31
2022-08-05T07:11:25.523Z,17.49
2022-08-05T07:14:20.569Z,17.59
2022-08-05T07:17:58.982Z,17.53
2022-08-05T07:20:32.311Z,17.33
2022-08-05T07:22:38.656Z,17.39
2022-08-05T07:25:22.995Z,17.47
2022-08-05T07:28:05.392Z,17.38
2022-08-05T07:30:38.816Z,17.44
2022-08-05T07:33:10.564Z,17.44
2022-08-05T07:36:03.736Z,17.51
2022-08-05T07:38:35.382Z,17.43
2022-08-05T07:42:08.234Z,17.30
2022-08-05T07:44:14.078Z,17.42
2022-08-05T07:46:48.645Z,17.25
2022-08-05T07:49:18.651Z,17.04
2022-08-05T07:51:53.405Z,17.04
2022-08-05T07:54:31.286Z,17.14
2022-08-05T07:57:17.644Z,17.15
2022-08-05T07:59:52.357Z,17.17
2022-08-05T08:02:30.921Z,16.99
2022-08-05T08:05:14.690Z,17.06
2022-08-05T08:07:59.817Z,17.14
2022-08-05T08:10:29.251Z,17.19
2022-08-05T08:12:58.775Z,17.16
2022-08-05T08:16:33.404Z,17.15
2022-08-05T08:18:20.770Z,17.05
2022-08-05T08:21:03.180Z,16.99
2022-08-05T08:24:02.441Z,17.14
2022-08-05T08:26:26.947Z,17.05
2022-08-05T08:28:59.713Z,16.99
2022-08-05T08:31:39.174Z,16.96
2022-08-05T08:34:09.748Z,17.07
2022-08-05T08:36:52.414Z,17.05
2022-08-05T08:39:24.824Z,16.97
2022-08-05T08:41:59.781Z,16.82
2022-08-05T08:45:20.552Z,16.89
2022-08-05T08:48:06.003Z,16.96
2022-08-05T08:50:31.930Z,16.98
2022-08-05T08:53:08.052Z,16.82
2022-08-05T08:56:04.083Z,16.96
2022-08-05T08:58:37.040Z,16.91
2022-08-05T09:01:16.612Z,16.95
2022-08-05T09:03:55.283Z,16.91
2022-08-05T09:06:29.657Z,17.02
2022-08-05T09:09:00.528Z,17.00
2022-08-05T09:11:53.485Z,17.01
2022-08-05T09:14:57.192Z,16.95
2022-08-05T09:17:08.191Z,17.01
2022-08-05T09:20:01.863Z,16.87
2022-08-05T09:22:32.080Z,16.89
2022-08-05T09:25:24.035Z,16.87
2022-08-05T09:28:04.212Z,16.83
2022-08-05T09:30:35.162Z,16.74
2022-08-05T09:33:05.762Z,16.72
2022-08-05T09:35:35.507Z,16.80
2022-08-05T09:38:17.146Z,16.81
2022-08-05T09:40:53.533Z,16.75
2022-08-05T09:43:40.244Z,16.76
2022-08-05T09:46:27.990Z,16.88
2022-08-05T09:49:08.319Z,16.86
2022-08-05T09:51:49.343Z,16.92
2022-08-05T09:54:21.141Z,16.96
2022-08-05T09:57:01.696Z,17.00
2022-08-05T09:59:34.834Z,16.96
2022-08-05T10:02:05.977Z,17.00
2022-08-05T10:04:41.013Z,16.95
2022-08-05T10:07:19.984Z,17.02
2022-08-05T10:10:14.006Z,16.87
2022-08-05T10:12:49.431Z,16.67
2022-08-05T10:15:23.795Z,16.61
2022-08-05T10:18:22.897Z,16.62
2022-08-05T10:20:53.272Z,16.53
2022-08-05T10:23:55.246Z,16.38
2022-08-05T10:26:14.533Z,16.45
2022-08-05T10:28:45.042Z,16.48
2022-08-05T10:33:01.487Z,16.49
2022-08-05T10:34:03.454Z,16.38
2022-08-05T10:36:31.961Z,16.23
2022-08-05T10:39:11.615Z,16.17
2022-08-05T10:41:50.461Z,16.15
2022-08-05T10:44:21.347Z,16.05
2022-08-05T10:46:54.197Z,16.01
2022-08-05T10:49:27.482Z,16.01
2022-08-05T10:52:05.039Z,15.91
2022-08-05T10:54:56.190Z,15.85
2022-08-05T10:57:31.678Z,15.80
2022-08-05T11:00:19.280Z,15.78
2022-08-05T11:03:23.634Z,15.81
2022-08-05T11:06:15.558Z,15.84
2022-08-05T11:09:24.440Z,15.85
2022-08-05T11:12:54.159Z,15.76
2022-08-05T11:16:00.755Z,15.80
2022-08-05T11:18:30.243Z,15.71
2022-08-05T11:21:02.617Z,15.79
2022-08-05T11:24:02.515Z,15.84
2022-08-05T11:26:32.890Z,15.75
2022-08-05T11:29:11.779Z,15.69
2022-08-05T11:31:57.571Z,15.72
2022-08-05T11:34:39.910Z,15.62
2022-08-05T11:38:28.839Z,15.70
2022-08-05T11:41:12.765Z,15.71
2022-08-05T11:44:00.960Z,15.70
2022-08-05T11:46:37.913Z,15.64
2022-08-05T11:49:25.993Z,15.69
2022-08-05T11:51:54.357Z,15.65
2022-08-05T11:54:33.271Z,15.71
2022-08-05T11:57:08.820Z,15.70
2022-08-05T11:59:52.927Z,15.73
2022-08-05T12:02:31.868Z,15.74
2022-08-05T12:05:07.910Z,15.78
2022-08-05T12:08:08.670Z,15.87
2022-08-05T12:10:45.081Z,15.99
2022-08-05T12:13:27.908Z,16.12
2022-08-05T12:16:14.135Z,16.37
2022-08-05T12:18:52.427Z,16.48
2022-08-05T12:21:24.033Z,16.68
2022-08-05T12:24:00.071Z,16.84
2022-08-05T12:26:33.354Z,16.83
2022-08-05T12:29:03.267Z,16.47
2022-08-05T12:31:43.738Z,16.55
2022-08-05T12:34:20.595Z,16.69
2022-08-05T12:36:53.269Z,16.75
2022-08-05T12:39:22.107Z,16.91
2022-08-05T12:41:57.987Z,17.05
2022-08-05T12:44:33.744Z,17.07
2022-08-05T12:47:03.739Z,17.23
2022-08-05T12:50:03.227Z,17.40
2022-08-05T12:52:38.688Z,17.47
2022-08-05T12:55:18.012Z,17.69
2022-08-05T12:58:49.664Z,17.99
2022-08-05T13:02:03.367Z,18.51
2022-08-05T13:03:41.737Z,19.16
2022-08-05T13:06:16.636Z,20.11
2022-08-05T13:08:52.386Z,21.54
2022-08-05T13:12:02.258Z,21.82
2022-08-05T13:14:19.401Z,21.46
2022-08-05T13:16:50.427Z,21.56
2022-08-05T13:19:18.880Z,21.39
2022-08-05T13:21:52.555Z,21.05
2022-08-05T13:24:27.629Z,21.25
2022-08-05T13:27:16.939Z,20.94
2022-08-05T13:30:31.479Z,20.54
2022-08-05T13:32:42.220Z,20.65
2022-08-05T13:35:15.433Z,20.41
2022-08-05T13:37:55.777Z,20.32
2022-08-05T13:40:47.916Z,20.94
2022-08-05T13:43:12.415Z,21.33
2022-08-05T13:45:43.256Z,22.19
2022-08-05T13:48:58.295Z,23.33
2022-08-05T13:51:06.509Z,24.03
2022-08-05T13:53:47.756Z,24.30
2022-08-05T13:56:18.881Z,24.09
2022-08-05T13:58:53.047Z,23.68
2022-08-05T14:01:36.245Z,22.94
2022-08-05T14:04:28.749Z,22.01
2022-08-05T14:06:58.872Z,22.07
2022-08-05T14:09:46.025Z,22.01
2022-08-05T14:12:18.253Z,22.35
2022-08-05T14:15:00.521Z,21.57
2022-08-05T14:17:34.112Z,21.47
2022-08-05T14:20:04.730Z,22.19
2022-08-05T14:22:35.836Z,21.70
2022-08-05T14:25:21.849Z,21.87
2022-08-05T14:27:50.948Z,21.42
2022-08-05T14:30:20.606Z,21.07
2022-08-05T14:32:49.766Z,20.44
2022-08-05T14:35:20.875Z,20.42
2022-08-05T14:37:55.375Z,20.43
2022-08-05T14:40:25.178Z,20.40
2022-08-05T14:42:53.228Z,20.99
2022-08-05T14:45:21.385Z,21.38
2022-08-05T14:48:03.441Z,22.36
2022-08-05T14:50:36.022Z,22.66
2022-08-05T14:53:08.025Z,23.90
2022-08-05T14:55:39.283Z,25.96
2022-08-05T14:58:11.241Z,27.78
2022-08-05T15:00:58.321Z,28.30
2022-08-05T15:03:33.168Z,28.41
2022-08-05T15:06:07.772Z,27.86
2022-08-05T15:08:59.118Z,27.77
2022-08-05T15:11:51.628Z,27.58
2022-08-05T15:14:34.996Z,28.62
2022-08-05T15:17:05.509Z,26.10
2022-08-05T15:19:49.170Z,24.67
2022-08-05T15:22:21.681Z,24.27
2022-08-05T15:24:55.566Z,22.72
2022-08-05T15:27:25.809Z,21.86
2022-08-05T15:29:56.776Z,21.27
2022-08-05T15:32:28.949Z,20.81
2022-08-05T15:34:57.244Z,20.54
2022-08-05T15:38:34.490Z,20.13
2022-08-05T15:40:59.096Z,19.60
2022-08-05T15:43:12.519Z,19.21
2022-08-05T15:46:00.733Z,17.76
2022-08-05T15:48:30.249Z,16.55
2022-08-05T15:51:03.282Z,16.14
2022-08-05T15:53:38.321Z,15.85
2022-08-05T15:56:19.950Z,15.72
2022-08-05T15:58:49.901Z,15.83
2022-08-05T16:01:19.074Z,16.35
2022-08-05T16:03:50.583Z,17.14
2022-08-05T16:06:20.540Z,18.58
2022-08-05T16:08:50.301Z,19.49
2022-08-05T16:11:20.940Z,19.74
2022-08-05T16:14:09.328Z,20.62
2022-08-05T16:16:37.435Z,20.60
2022-08-05T16:19:06.477Z,21.09
2022-08-05T16:22:00.687Z,21.69
2022-08-05T16:24:40.424Z,20.55
2022-08-05T16:27:10.326Z,19.63
2022-08-05T16:29:50.135Z,18.58
2022-08-05T16:32:28.467Z,18.50
2022-08-05T16:34:58.726Z,18.52
2022-08-05T16:38:15.212Z,19.65
2022-08-05T16:40:28.828Z,20.34
2022-08-05T16:42:57.731Z,20.61
2022-08-05T16:46:04.249Z,20.62
2022-08-05T16:48:25.887Z,19.03
2022-08-05T16:51:01.681Z,18.01
2022-08-05T16:53:32.523Z,17.45
2022-08-05T16:56:18.236Z,17.67
2022-08-05T16:58:47.804Z,18.62
2022-08-05T17:01:18.889Z,19.48
2022-08-05T17:03:47.286Z,19.64
2022-08-05T17:06:16.771Z,19.84
2022-08-05T17:08:53.133Z,20.22
2022-08-05T17:11:23.437Z,19.60
2022-08-05T17:14:00.662Z,19.44
2022-08-05T17:16:37.223Z,19.29
2022-08-05T17:19:07.491Z,19.51
2022-08-05T17:21:39.617Z,19.17
2022-08-05T17:24:30.301Z,18.86
2022-08-05T17:26:58.185Z,18.61
2022-08-05T17:29:34.043Z,18.52
2022-08-05T17:32:16.718Z,18.26
2022-08-05T17:34:48.036Z,17.71
2022-08-05T17:37:40.616Z,17.31
2022-08-05T17:40:10.617Z,17.23
2022-08-05T17:42:41.626Z,16.78
2022-08-05T17:45:20.454Z,16.71
2022-08-05T17:47:55.051Z,16.65
2022-08-05T17:50:29.523Z,16.84
2022-08-05T17:53:00.781Z,16.76
2022-08-05T17:55:37.588Z,16.85
2022-08-05T17:58:09.879Z,16.80
2022-08-05T18:00:40.896Z,16.52
2022-08-05T18:06:11.535Z,16.31
2022-08-05T18:08:44.615Z,16.15
2022-08-05T18:11:24.199Z,16.03
2022-08-05T18:14:04.347Z,15.95
2022-08-05T18:16:35.649Z,15.84
2022-08-05T18:19:22.792Z,15.82
2022-08-05T18:22:08.709Z,15.68
2022-08-05T18:24:39.944Z,15.52
2022-08-05T18:27:12.880Z,15.60
2022-08-05T18:29:51.983Z,15.54
2022-08-05T18:32:28.055Z,15.42
2022-08-05T18:34:59.411Z,15.32
2022-08-05T18:37:34.415Z,15.35
2022-08-05T18:40:57.580Z,15.24
2022-08-05T18:42:57.815Z,15.26
2022-08-05T18:45:25.966Z,15.08
2022-08-05T18:48:11.316Z,15.11
2022-08-05T18:52:02.506Z,15.07
2022-08-05T18:53:50.384Z,15.00
2022-08-05T18:56:21.794Z,14.92
2022-08-05T18:58:59.804Z,14.92
2022-08-05T19:01:33.413Z,14.86
2022-08-05T19:04:24.092Z,14.73
2022-08-05T19:06:53.949Z,14.71
2022-08-05T19:09:22.587Z,14.67
2022-08-05T19:12:00.152Z,14.58
2022-08-05T19:14:44.964Z,14.54
2022-08-05T19:17:18.370Z,14.51
2022-08-05T19:19:48.706Z,14.46
2022-08-05T19:22:18.450Z,14.41
2022-08-05T19:24:56.153Z,14.36
2022-08-05T19:27:30.527Z,14.32
2022-08-05T19:29:59.263Z,14.25
2022-08-05T19:32:27.907Z,14.23
2022-08-05T19:34:56.570Z,14.19
2022-08-05T19:37:34.893Z,14.17
2022-08-05T19:40:16.187Z,14.12
2022-08-05T19:43:00.784Z,14.07
2022-08-05T19:45:36.934Z,14.00
2022-08-05T19:48:06.332Z,14.01
2022-08-05T19:50:34.969Z,13.94
2022-08-05T19:53:09.433Z,13.85
2022-08-05T19:56:14.992Z,13.83
2022-08-05T19:58:28.409Z,13.79
2022-08-05T20:00:57.981Z,13.67
2022-08-05T20:03:27.345Z,13.68
2022-08-05T20:06:15.539Z,13.64
2022-08-05T20:08:47.579Z,13.65
2022-08-05T20:11:17.897Z,13.61
2022-08-05T20:13:58.172Z,13.59
2022-08-05T20:16:27.248Z,13.53
2022-08-05T20:18:55.826Z,13.49
2022-08-05T20:21:25.463Z,13.50
2022-08-05T20:23:54.870Z,13.40
2022-08-05T20:26:25.712Z,13.40
2022-08-05T20:28:56.243Z,13.38
2022-08-05T20:31:36.913Z,13.31
2022-08-05T20:34:11.599Z,13.35
2022-08-05T20:36:43.414Z,13.30
2022-08-05T20:39:16.343Z,13.23
2022-08-05T20:41:46.605Z,13.21
2022-08-05T20:44:29.731Z,13.19
2022-08-05T20:46:59.684Z,13.20
2022-08-05T20:49:27.797Z,13.16
2022-08-05T20:51:57.456Z,13.11
2022-08-05T20:54:59.805Z,13.09
2022-08-05T20:57:42.173Z,13.08
2022-08-05T21:00:21.009Z,12.94
2022-08-05T21:03:00.161Z,13.00
2022-08-05T21:05:48.326Z,12.97
2022-08-05T21:08:17.971Z,12.94
2022-08-05T21:10:48.872Z,12.91
2022-08-05T21:13:26.578Z,12.89
2022-08-05T21:16:06.294Z,12.84
2022-08-05T21:18:34.590Z,12.88
2022-08-05T21:21:03.974Z,12.86
2022-08-05T21:23:37.204Z,12.83
2022-08-05T21:26:14.482Z,12.83
2022-08-05T21:28:47.620Z,12.84
2022-08-05T21:31:18.813Z,12.79
2022-08-05T21:33:47.901Z,12.78
2022-08-05T21:36:27.444Z,12.74
2022-08-05T21:38:58.533Z,12.76
2022-08-05T21:41:32.946Z,12.80
2022-08-05T21:44:04.412Z,12.68
2022-08-05T21:46:34.309Z,12.64
2022-08-05T21:49:07.418Z,12.67
2022-08-05T21:52:21.847Z,12.62
2022-08-05T21:54:30.930Z,12.61
2022-08-05T21:57:31.312Z,12.64
2022-08-05T22:00:04.001Z,12.57
2022-08-05T22:02:34.835Z,12.54
2022-08-05T22:05:04.506Z,12.47
2022-08-05T22:07:39.757Z,12.48
2022-08-05T22:10:25.602Z,12.51
2022-08-05T22:12:58.741Z,12.50
2022-08-05T22:16:00.724Z,12.50
2022-08-05T22:18:16.007Z,12.50
2022-08-05T22:20:47.738Z,12.53
2022-08-05T22:24:02.452Z,12.48
2022-08-05T22:26:43.048Z,12.46
2022-08-05T22:29:26.836Z,12.46
2022-08-05T22:32:02.890Z,12.50
2022-08-05T22:34:31.197Z,12.46
2022-08-05T22:37:00.521Z,12.43
2022-08-05T22:39:33.870Z,12.43
2022-08-05T22:42:09.493Z,12.39
2022-08-05T22:44:42.537Z,12.40
2022-08-05T22:47:11.225Z,12.38
2022-08-05T22:50:21.721Z,12.32
2022-08-05T22:52:32.703Z,12.28
2022-08-05T22:55:04.394Z,12.22
2022-08-05T22:57:49.122Z,12.21
2022-08-05T23:00:20.965Z,12.15
2022-08-05T23:02:50.360Z,12.12
2022-08-05T23:05:19.207Z,12.11
2022-08-05T23:07:51.163Z,12.13
2022-08-05T23:10:19.935Z,12.10
2022-08-05T23:12:51.335Z,12.06
2022-08-05T23:15:21.291Z,12.06
2022-08-05T23:18:01.134Z,12.07
2022-08-05T23:20:32.331Z,12.10
2022-08-05T23:23:03.628Z,12.09
2022-08-05T23:25:53.094Z,12.11
2022-08-05T23:28:23.944Z,12.07
2022-08-05T23:30:56.358Z,12.08
2022-08-05T23:34:04.199Z,12.10
2022-08-05T23:36:40.125Z,12.06
2022-08-05T23:39:17.339Z,12.03
2022-08-05T23:41:52.225Z,12.03
2022-08-05T23:44:24.963Z,11.88
2022-08-05T23:46:57.631Z,11.89
2022-08-05T23:49:35.673Z,11.90
2022-08-05T23:52:25.341Z,11.85
2022-08-05T23:54:54.381Z,11.77
2022-08-05T23:57:22.538Z,11.80
